Time;durP1;ratioP1;P1;durP2;ratioP2;P2;SDS_P1;SDS_P2;PMS_P1;PMS_P2;Temp;Humidity;BMP_temperature;BMP_pressure;BME280_temperature;BME280_humidity;BME280_pressure;Samples;Min_cycle;Max_cycle;Signal;HPM_P1;HPM_P2
2023/07/05 00:01:49;;;;;;;1.50;0.47;;;;;;;22.95;46.88;99699.16;10224214;28;20410;-61
2023/07/05 00:06:52;;;;;;;2.08;0.70;;;;;;;23.03;46.85;99695.06;10226188;28;20062;-61
2023/07/05 00:11:56;;;;;;;1.35;0.50;;;;;;;22.99;47.08;99685.72;10221729;28;20074;-61
2023/07/05 00:16:57;;;;;;;0.93;0.43;;;;;;;23.01;47.29;99696.44;10222793;28;20554;-61
2023/07/05 00:21:58;;;;;;;1.30;0.60;;;;;;;22.93;47.38;99701.34;10223143;28;20063;-61
2023/07/05 00:27:00;;;;;;;4.30;0.75;;;;;;;22.66;48.51;99704.34;10222303;29;20055;-61
2023/07/05 00:32:01;;;;;;;2.58;0.70;;;;;;;22.41;49.67;99701.56;10224574;28;20052;-61
2023/07/05 00:37:03;;;;;;;9.48;0.50;;;;;;;21.75;52.49;99763.13;10226921;28;20158;-61
2023/07/05 00:42:05;;;;;;;7.85;1.63;;;;;;;20.36;58.23;99701.78;10222082;29;20356;-61
2023/07/05 00:47:31;;;;;;;3.83;1.20;;;;;;;19.94;61.10;99657.91;10228659;29;20043;-62
2023/07/05 00:52:32;;;;;;;2.83;1.00;;;;;;;19.70;62.98;99655.41;10224098;29;20078;-61
2023/07/05 00:57:36;;;;;;;2.83;0.90;;;;;;;19.22;65.15;99652.31;10226093;29;20058;-62
2023/07/05 01:02:41;;;;;;;2.28;0.77;;;;;;;18.92;66.36;99657.31;10223268;28;20476;-62
2023/07/05 01:07:42;;;;;;;3.13;0.90;;;;;;;18.92;66.48;99662.75;10223275;29;20047;-62
2023/07/05 01:13:04;;;;;;;2.13;0.80;;;;;;;18.83;67.06;99659.59;10217204;28;20054;-62
2023/07/05 01:18:22;;;;;;;4.50;0.85;;;;;;;18.83;67.65;99656.88;10218874;28;20059;-62
2023/07/05 01:23:45;;;;;;;5.00;0.90;;;;;;;18.84;67.97;99642.22;10220818;28;20456;-62
2023/07/05 01:29:29;;;;;;;2.80;0.70;;;;;;;18.92;67.77;99619.19;10221264;29;20054;-62
2023/07/05 01:34:30;;;;;;;4.85;1.08;;;;;;;19.13;67.61;99618.38;10216531;28;20055;-62
2023/07/05 01:39:32;;;;;;;3.97;1.00;;;;;;;19.12;67.99;99646.72;10222774;28;20044;-62
2023/07/05 01:44:33;;;;;;;4.50;1.63;;;;;;;18.80;69.99;99658.22;10218027;29;20546;-62
2023/07/05 01:49:53;;;;;;;8.57;1.92;;;;;;;18.89;70.40;99646.91;10221057;29;20067;-62
2023/07/05 01:55:06;;;;;;;3.30;1.13;;;;;;;19.04;70.39;99649.88;10219394;29;20044;-61
2023/07/05 02:00:15;;;;;;;4.35;2.15;;;;;;;19.14;70.53;99635.56;10218628;29;20051;-62
2023/07/05 02:05:19;;;;;;;5.93;1.67;;;;;;;19.15;70.81;99635.31;10217683;28;20058;-61
2023/07/05 02:10:21;;;;;;;7.70;1.92;;;;;;;19.24;70.98;99624.81;10218897;28;20482;-61
2023/07/05 02:15:23;;;;;;;3.80;1.73;;;;;;;19.31;71.00;99632.81;10218263;28;20047;-61
2023/07/05 02:20:25;;;;;;;4.97;1.65;;;;;;;19.25;71.34;99636.53;10223410;28;20075;-61
2023/07/05 02:25:26;;;;;;;6.63;2.05;;;;;;;19.13;71.55;99629.28;10219394;28;20500;-61
2023/07/05 02:30:28;;;;;;;4.88;1.63;;;;;;;19.16;71.79;99631.53;10217000;29;20055;-61
2023/07/05 02:35:29;;;;;;;4.55;1.48;;;;;;;19.09;72.14;99627.31;10214430;28;20091;-61
2023/07/05 02:40:31;;;;;;;3.55;1.60;;;;;;;19.06;72.34;99625.13;10220628;28;20055;-61
2023/07/05 02:45:32;;;;;;;6.63;1.27;;;;;;;19.03;72.50;99618.25;10217847;28;20047;-61
2023/07/05 02:50:38;;;;;;;3.00;0.90;;;;;;;19.01;72.77;99602.13;10219256;29;20138;-61
2023/07/05 02:55:39;;;;;;;3.53;1.65;;;;;;;19.13;72.56;99603.94;10227963;28;20047;-61
2023/07/05 03:00:42;;;;;;;1.83;1.15;;;;;;;19.05;72.84;99594.28;10228265;28;20050;-60
2023/07/05 03:05:53;;;;;;;3.35;1.17;;;;;;;19.11;72.91;99589.75;10228406;28;20071;-61
2023/07/05 03:10:56;;;;;;;3.22;1.48;;;;;;;19.17;72.84;99596.91;10224332;28;20067;-61
2023/07/05 03:15:58;;;;;;;3.53;1.50;;;;;;;19.20;73.05;99577.34;10226115;28;20119;-60
2023/07/05 03:21:00;;;;;;;5.43;1.40;;;;;;;19.28;72.90;99557.03;10224632;29;20059;-60
2023/07/05 03:26:04;;;;;;;6.32;2.40;;;;;;;19.34;72.75;99537.75;10224481;29;20055;-60
2023/07/05 03:31:09;;;;;;;4.63;1.40;;;;;;;19.34;72.97;99534.19;10223959;29;20044;-60
2023/07/05 03:36:17;;;;;;;3.90;1.58;;;;;;;19.44;72.81;99547.13;10226728;28;20051;-60
2023/07/05 03:41:21;;;;;;;3.95;1.55;;;;;;;19.34;72.75;99565.00;10224991;29;20116;-60
2023/07/05 03:46:23;;;;;;;3.17;1.20;;;;;;;19.20;73.15;99585.53;10225648;29;20070;-61
2023/07/05 03:51:25;;;;;;;5.10;1.25;;;;;;;19.20;73.31;99589.06;10220382;28;20058;-59
2023/07/05 03:56:29;;;;;;;3.03;1.55;;;;;;;19.17;73.57;99572.41;10221715;28;20043;-61
2023/07/05 04:01:32;;;;;;;1.77;1.33;;;;;;;19.24;73.20;99564.88;10235208;28;20104;-62
2023/07/05 04:06:33;;;;;;;1.10;0.82;;;;;;;19.17;73.78;99572.41;10277585;28;20063;-63
2023/07/05 04:11:36;;;;;;;2.83;0.90;;;;;;;19.22;73.54;99567.84;10272225;28;20040;-62
2023/07/05 04:16:39;;;;;;;1.52;0.80;;;;;;;19.21;73.49;99554.47;10381170;23;20062;-87
2023/07/05 04:21:41;;;;;;;3.42;1.58;;;;;;;19.26;73.51;99549.09;10303279;28;20096;-88
2023/07/05 04:26:42;;;;;;;3.15;1.00;;;;;;;19.32;73.45;99552.72;10273505;28;20111;-87
2023/07/05 04:31:45;;;;;;;2.70;1.10;;;;;;;19.41;73.50;99551.16;10292195;28;20102;-88
2023/07/05 04:36:47;;;;;;;4.88;1.30;;;;;;;19.44;73.42;99549.84;10294304;28;20051;-87
2023/07/05 04:41:49;;;;;;;1.90;1.00;;;;;;;19.51;73.20;99550.47;10275176;28;20074;-89
2023/07/05 04:46:51;;;;;;;3.42;0.90;;;;;;;19.51;73.47;99550.47;10274573;28;20065;-89
2023/07/05 04:51:54;;;;;;;7.07;1.00;;;;;;;19.50;73.31;99555.09;10278861;28;20043;-88
2023/07/05 04:56:56;;;;;;;4.53;1.00;;;;;;;19.55;73.22;99562.50;10293208;28;20051;-88
2023/07/05 05:01:58;;;;;;;1.38;0.70;;;;;;;19.51;73.55;99566.81;10263879;28;20051;-89
2023/07/05 05:07:00;;;;;;;1.58;0.90;;;;;;;19.41;73.74;99570.25;10265930;28;20106;-89
2023/07/05 05:12:04;;;;;;;3.05;1.00;;;;;;;19.37;74.09;99575.41;10295694;28;20082;-88
2023/07/05 05:17:06;;;;;;;2.83;0.90;;;;;;;19.42;74.01;99580.91;10359192;23;20114;-61
2023/07/05 05:22:10;;;;;;;2.28;0.80;;;;;;;19.45;73.98;99587.78;10294462;28;20043;-61
2023/07/05 05:27:12;;;;;;;2.35;1.27;;;;;;;19.47;73.74;99599.25;10275774;28;20047;-61
2023/07/05 05:32:13;;;;;;;3.10;1.23;;;;;;;19.57;73.78;99602.09;10278462;28;20043;-61
2023/07/05 05:37:15;;;;;;;1.15;0.80;;;;;;;19.66;73.92;99607.09;10274355;28;20070;-61
2023/07/05 05:42:17;;;;;;;3.22;0.90;;;;;;;19.78;73.66;99618.72;10267568;28;20058;-61
2023/07/05 05:47:18;;;;;;;2.50;0.77;;;;;;;19.71;73.60;99620.81;10262472;28;20086;-61
2023/07/05 05:52:19;;;;;;;5.10;1.02;;;;;;;19.80;73.59;99624.75;10258246;28;20498;-60
2023/07/05 05:57:21;;;;;;;3.55;0.90;;;;;;;19.90;72.90;99624.84;10260771;28;20078;-60
2023/07/05 06:02:22;;;;;;;1.58;1.17;;;;;;;19.96;72.67;99642.97;10257797;28;20043;-60
2023/07/05 06:07:26;;;;;;;1.70;0.60;;;;;;;19.99;71.49;99644.34;10258611;28;20058;-59
2023/07/05 06:12:28;;;;;;;2.25;0.45;;;;;;;19.95;70.08;99654.13;10279722;28;20062;-61
2023/07/05 06:17:30;;;;;;;2.40;1.02;;;;;;;19.82;68.11;99660.78;10221556;28;20050;-60
2023/07/05 06:22:33;;;;;;;1.45;0.50;;;;;;;19.79;66.89;99672.19;10234592;28;20039;-60
2023/07/05 06:27:35;;;;;;;1.40;0.50;;;;;;;19.71;65.79;99684.38;10234546;28;20047;-60
2023/07/05 06:32:36;;;;;;;1.88;1.00;;;;;;;19.74;65.11;99675.66;10241367;29;20099;-61
2023/07/05 06:37:38;;;;;;;2.42;0.60;;;;;;;19.79;64.78;99699.47;10241947;29;20090;-62
2023/07/05 06:42:40;;;;;;;1.98;1.08;;;;;;;19.89;64.33;99696.88;10246174;28;20494;-62
2023/07/05 06:47:42;;;;;;;4.55;0.90;;;;;;;19.91;62.86;99711.09;10233331;29;20500;-62
2023/07/05 06:52:43;;;;;;;1.80;1.00;;;;;;;19.70;61.33;99717.31;10242028;29;20048;-64
2023/07/05 06:57:45;;;;;;;2.58;1.10;;;;;;;19.68;59.90;99724.91;10223965;29;20051;-61
2023/07/05 07:02:46;;;;;;;3.38;1.27;;;;;;;19.82;58.58;99742.59;10231614;29;20060;-61
2023/07/05 07:07:50;;;;;;;3.17;1.13;;;;;;;19.92;57.45;99745.44;10230522;28;20058;-61
2023/07/05 07:12:52;;;;;;;2.20;1.20;;;;;;;20.07;57.48;99755.75;10231055;29;20055;-64
2023/07/05 07:17:53;;;;;;;3.75;1.33;;;;;;;20.03;56.40;99767.44;10227739;28;20055;-65
2023/07/05 07:22:55;;;;;;;3.00;1.27;;;;;;;19.82;56.75;99786.25;10232011;28;20048;-64
2023/07/05 07:27:56;;;;;;;4.22;1.17;;;;;;;19.80;56.54;99799.31;10227537;28;20059;-62
2023/07/05 07:32:57;;;;;;;2.60;1.13;;;;;;;19.90;56.71;99810.34;10223144;29;20086;-62
2023/07/05 07:37:59;;;;;;;2.47;1.05;;;;;;;19.84;56.05;99822.28;10224582;29;20071;-62
2023/07/05 07:43:00;;;;;;;2.35;1.10;;;;;;;19.87;55.75;99838.16;10225966;29;20055;-62
2023/07/05 07:48:02;;;;;;;2.20;1.10;;;;;;;19.93;54.16;99842.59;10223618;28;20050;-63
2023/07/05 07:53:03;;;;;;;1.70;0.82;;;;;;;19.98;53.26;99855.47;10222585;29;20051;-62
2023/07/05 07:58:05;;;;;;;2.72;0.90;;;;;;;19.68;52.13;99862.09;10225092;28;20075;-61
2023/07/05 08:03:07;;;;;;;2.53;0.85;;;;;;;19.77;51.39;99857.09;10226840;28;20083;-63
2023/07/05 08:08:11;;;;;;;1.85;0.82;;;;;;;19.92;49.94;99865.50;10225395;28;20055;-62
2023/07/05 08:13:12;;;;;;;2.35;0.77;;;;;;;19.87;48.01;99881.78;10243618;28;20050;-64
2023/07/05 08:18:14;;;;;;;3.17;0.73;;;;;;;19.92;46.09;99892.78;10228184;29;20054;-64
2023/07/05 08:23:15;;;;;;;1.05;0.57;;;;;;;19.95;45.58;99892.28;10218894;28;20410;-63
2023/07/05 08:28:17;;;;;;;1.52;0.60;;;;;;;20.08;45.03;99885.63;10222451;29;20043;-63
2023/07/05 08:33:20;;;;;;;4.55;0.60;;;;;;;20.15;43.77;99905.41;10222388;28;20155;-63
2023/07/05 08:38:22;;;;;;;1.63;0.50;;;;;;;20.16;43.36;99904.34;10223417;28;20602;-63
2023/07/05 08:43:39;;;;;;;2.17;0.50;;;;;;;20.42;43.30;99904.72;10219754;29;20491;-64
2023/07/05 08:48:42;;;;;;;1.40;0.57;;;;;;;20.32;41.98;99915.47;10223345;28;20066;-62
2023/07/05 08:53:50;;;;;;;1.23;0.45;;;;;;;20.25;42.72;99925.75;10223599;29;20054;-64
2023/07/05 08:59:33;;;;;;;1.77;0.43;;;;;;;20.38;42.35;99926.22;10225436;29;20047;-63
2023/07/05 09:04:35;;;;;;;2.13;0.93;;;;;;;20.62;41.46;99945.16;10215015;28;20051;-63
2023/07/05 09:09:59;;;;;;;0.70;0.40;;;;;;;20.63;40.50;99949.50;10220448;28;20085;-63
2023/07/05 09:15:13;;;;;;;4.50;0.38;;;;;;;20.69;40.63;99945.78;10218851;28;20130;-63
2023/07/05 09:20:29;;;;;;;0.85;0.40;;;;;;;20.85;41.55;99944.06;10219586;29;20067;-62
2023/07/05 09:25:33;;;;;;;2.20;0.38;;;;;;;21.08;41.37;99945.72;10225082;28;20055;-63
2023/07/05 09:30:57;;;;;;;1.15;0.38;;;;;;;21.09;41.49;99954.72;10222642;28;20122;-62
2023/07/05 09:36:05;;;;;;;1.13;0.47;;;;;;;20.92;41.06;99965.75;10221448;28;20134;-64
2023/07/05 09:41:13;;;;;;;1.25;0.40;;;;;;;20.92;41.20;99973.94;10221979;29;20066;-64
2023/07/05 09:46:25;;;;;;;1.15;0.38;;;;;;;21.03;41.29;99985.81;10221636;28;20058;-63
2023/07/05 09:51:27;;;;;;;1.13;0.30;;;;;;;21.22;41.43;99961.72;10218677;29;20062;-63
2023/07/05 09:56:29;;;;;;;0.95;0.35;;;;;;;21.33;40.88;99974.44;10221184;29;20055;-63
2023/07/05 10:01:31;;;;;;;2.55;0.43;;;;;;;21.18;40.07;100005.16;10218816;28;20058;-63
2023/07/05 10:06:39;;;;;;;4.20;0.70;;;;;;;21.08;40.22;99999.56;10221817;28;20062;-63
2023/07/05 10:11:50;;;;;;;1.92;0.28;;;;;;;21.16;40.59;100002.66;10218419;29;20054;-64
2023/07/05 10:17:02;;;;;;;3.33;0.30;;;;;;;21.06;40.86;100008.00;10223290;28;20043;-63
2023/07/05 10:22:25;;;;;;;1.42;0.30;;;;;;;21.37;40.53;100005.66;10221788;28;20061;-66
2023/07/05 10:27:33;;;;;;;0.88;0.30;;;;;;;21.55;39.61;100005.34;10221620;29;20138;-65
2023/07/05 10:32:36;;;;;;;0.98;0.30;;;;;;;21.46;38.32;100012.34;10218389;29;20083;-63
2023/07/05 10:37:38;;;;;;;2.35;0.20;;;;;;;21.58;38.31;100026.72;10224946;29;20044;-60
2023/07/05 10:42:48;;;;;;;1.02;0.30;;;;;;;21.76;38.09;100017.31;10229310;28;20051;-60
2023/07/05 10:47:54;;;;;;;1.45;0.15;;;;;;;22.03;38.06;100010.16;10229602;29;20053;-61
2023/07/05 10:53:10;;;;;;;0.60;0.20;;;;;;;21.84;38.18;100013.31;10229286;29;20111;-60
2023/07/05 10:58:15;;;;;;;0.60;0.22;;;;;;;21.87;37.52;100018.25;10225254;29;20039;-60
2023/07/05 11:03:26;;;;;;;0.52;0.20;;;;;;;22.32;36.96;100002.50;10228562;29;20054;-62
2023/07/05 11:08:35;;;;;;;0.50;0.20;;;;;;;22.53;37.01;100006.19;10227948;28;20074;-61
2023/07/05 11:13:36;;;;;;;1.35;0.22;;;;;;;22.40;36.35;100010.22;10233767;28;20078;-62
2023/07/05 11:18:38;;;;;;;2.75;0.20;;;;;;;22.38;36.42;99999.53;10216561;28;20055;-61
2023/07/05 11:23:42;;;;;;;1.95;0.30;;;;;;;22.62;36.29;100006.53;10232968;28;20078;-62
2023/07/05 11:28:44;;;;;;;0.80;0.30;;;;;;;22.92;36.10;100005.88;10230750;28;20048;-62
2023/07/05 11:34:20;;;;;;;2.38;0.20;;;;;;;22.93;35.85;100016.59;10227647;28;20410;-62
2023/07/05 11:39:35;;;;;;;0.87;0.57;;;;;;;22.89;35.53;100020.13;10232800;28;20415;-63
2023/07/05 11:44:37;;;;;;;4.18;0.20;;;;;;;22.87;34.23;100025.06;10228032;28;20733;-63
2023/07/05 11:49:41;;;;;;;1.70;0.30;;;;;;;22.74;33.87;100038.13;10229566;29;20051;-62
2023/07/05 11:54:53;;;;;;;1.48;0.80;;;;;;;22.54;34.10;100038.00;10226979;29;20063;-61
2023/07/05 12:00:14;;;;;;;0.77;0.20;;;;;;;22.56;34.37;100027.59;10228570;29;20087;-62
2023/07/05 12:05:19;;;;;;;2.33;0.22;;;;;;;22.82;33.39;100039.53;10224052;28;20048;-61
2023/07/05 12:10:25;;;;;;;1.77;0.40;;;;;;;23.20;33.00;100054.03;10230858;29;20066;-61
2023/07/05 12:15:27;;;;;;;2.40;0.37;;;;;;;23.37;32.50;100048.34;10212602;29;20066;-61
2023/07/05 12:20:39;;;;;;;0.52;0.20;;;;;;;23.28;32.37;100044.47;10227434;28;20610;-61
2023/07/05 12:25:49;;;;;;;0.88;0.30;;;;;;;23.62;32.35;100044.88;10226710;28;20107;-60
2023/07/05 12:30:57;;;;;;;1.27;0.38;;;;;;;23.88;32.11;100034.78;10231228;29;20451;-61
2023/07/05 12:36:18;;;;;;;1.83;0.35;;;;;;;23.95;32.38;100024.38;10226953;28;20105;-61
2023/07/05 12:41:22;;;;;;;3.63;0.30;;;;;;;23.84;31.64;100043.84;10231627;29;20060;-61
2023/07/05 12:46:28;;;;;;;1.30;0.45;;;;;;;23.91;31.68;100042.50;10221219;28;20074;-61
2023/07/05 12:51:30;;;;;;;1.38;0.43;;;;;;;24.05;31.35;100033.72;10210563;28;20525;-61
2023/07/05 12:56:35;;;;;;;1.60;0.30;;;;;;;23.84;30.70;100047.41;10222297;29;20051;-62
2023/07/05 13:01:40;;;;;;;1.90;0.38;;;;;;;24.14;30.51;100041.13;10217495;28;20043;-61
2023/07/05 13:06:43;;;;;;;1.63;0.40;;;;;;;24.27;30.42;100052.66;10216702;28;20058;-62
2023/07/05 13:12:00;;;;;;;2.17;0.40;;;;;;;24.01;30.28;100041.66;10221017;28;20134;-61
2023/07/05 13:17:16;;;;;;;1.20;0.30;;;;;;;24.35;29.80;100044.72;10217188;29;20074;-61
2023/07/05 13:22:26;;;;;;;2.73;0.63;;;;;;;24.25;29.98;100039.22;10219782;29;20093;-62
2023/07/05 13:27:31;;;;;;;1.85;0.60;;;;;;;24.05;30.36;100033.72;10205256;29;20492;-61
2023/07/05 13:32:40;;;;;;;2.30;0.38;;;;;;;24.09;30.56;100040.31;10218483;28;20521;-62
2023/07/05 13:37:41;;;;;;;1.38;0.38;;;;;;;24.30;30.87;100041.13;10218434;29;20047;-61
2023/07/05 13:42:43;;;;;;;1.50;0.40;;;;;;;24.12;30.54;100046.06;10223340;29;20056;-61
2023/07/05 13:47:44;;;;;;;1.23;0.52;;;;;;;24.14;30.88;100054.84;10219759;29;20047;-61
2023/07/05 13:52:47;;;;;;;3.67;0.40;;;;;;;24.69;29.55;100055.16;10210215;29;20066;-61
2023/07/05 13:57:54;;;;;;;0.93;0.47;;;;;;;25.05;29.26;100049.56;10219659;28;20415;-61
2023/07/05 14:02:56;;;;;;;1.65;0.50;;;;;;;25.78;28.52;100039.91;10222923;29;20047;-66
2023/07/05 14:08:00;;;;;;;1.65;0.60;;;;;;;26.22;27.87;100058.34;10226216;28;20051;-65
2023/07/05 14:13:02;;;;;;;0.77;0.57;;;;;;;26.25;27.74;100046.75;10223778;28;20056;-65
2023/07/05 14:18:04;;;;;;;1.60;0.30;;;;;;;26.05;27.92;100047.75;10222564;29;20066;-65
2023/07/05 14:23:11;;;;;;;0.95;0.43;;;;;;;25.95;28.13;100049.72;10221356;29;20049;-63
2023/07/05 14:28:13;;;;;;;1.88;0.30;;;;;;;25.82;27.82;100043.72;10202726;28;20075;-64
2023/07/05 14:33:18;;;;;;;2.58;0.40;;;;;;;25.68;27.77;100042.72;10218672;29;20078;-64
2023/07/05 14:38:22;;;;;;;4.73;0.33;;;;;;;26.35;27.25;100039.53;10216574;29;20567;-65
2023/07/05 14:43:23;;;;;;;4.53;0.57;;;;;;;26.11;27.23;100056.81;10215869;29;20893;-65
2023/07/05 14:48:25;;;;;;;1.63;0.60;;;;;;;26.23;27.07;100053.69;10220359;29;20649;-67
2023/07/05 14:53:28;;;;;;;2.95;0.50;;;;;;;26.16;27.18;100042.16;10224507;28;20406;-64
2023/07/05 14:58:30;;;;;;;6.55;1.27;;;;;;;26.17;27.47;100052.06;10223576;29;20055;-63
2023/07/05 15:03:33;;;;;;;2.42;0.47;;;;;;;25.90;27.31;100048.66;10225241;29;20066;-63
2023/07/05 15:08:35;;;;;;;1.83;0.60;;;;;;;26.34;27.48;100054.41;10229279;28;20055;-66
2023/07/05 15:13:44;;;;;;;2.35;0.50;;;;;;;25.92;27.60;100054.69;10223904;28;20071;-65
2023/07/05 15:18:46;;;;;;;2.80;0.50;;;;;;;26.08;27.73;100049.91;10226163;29;20058;-66
2023/07/05 15:23:53;;;;;;;2.08;0.40;;;;;;;26.36;27.67;100043.91;10222221;28;20052;-65
2023/07/05 15:28:54;;;;;;;2.92;0.68;;;;;;;26.14;27.95;100047.94;10221746;29;20043;-64
2023/07/05 15:33:56;;;;;;;6.60;1.95;;;;;;;26.35;26.93;100056.88;10225840;28;20134;-65
2023/07/05 15:38:57;;;;;;;2.28;0.95;;;;;;;26.31;27.11;100067.66;10226834;29;20063;-67
2023/07/05 15:44:00;;;;;;;3.75;0.70;;;;;;;26.31;26.89;100066.84;10222420;28;20044;-67
2023/07/05 15:49:01;;;;;;;1.58;0.50;;;;;;;26.49;27.66;100062.53;10226725;28;20043;-65
2023/07/05 15:54:05;;;;;;;2.72;1.23;;;;;;;26.66;27.33;100054.69;10224884;29;20503;-64
2023/07/05 15:59:12;;;;;;;2.97;0.60;;;;;;;26.34;27.65;100062.66;10226695;29;20059;-65
2023/07/05 16:04:14;;;;;;;3.10;0.50;;;;;;;26.45;27.84;100058.72;10222718;28;20063;-64
2023/07/05 16:09:16;;;;;;;1.38;0.45;;;;;;;27.06;27.05;100057.31;10224083;28;20051;-65
2023/07/05 16:14:18;;;;;;;1.38;0.50;;;;;;;26.73;27.63;100078.34;10225448;28;20044;-65
2023/07/05 16:19:19;;;;;;;3.08;0.93;;;;;;;26.57;27.97;100061.09;10224659;28;20353;-66
2023/07/05 16:24:21;;;;;;;3.45;0.57;;;;;;;26.84;27.45;100066.13;10230270;29;20048;-65
2023/07/05 16:29:22;;;;;;;1.60;0.60;;;;;;;26.80;27.42;100063.13;10221314;28;20043;-66
2023/07/05 16:34:25;;;;;;;7.35;1.23;;;;;;;26.85;27.91;100070.50;10226943;28;20052;-67
2023/07/05 16:39:26;;;;;;;2.95;0.55;;;;;;;27.12;27.41;100077.41;10232017;28;20426;-68
2023/07/05 16:44:28;;;;;;;1.83;0.60;;;;;;;26.77;27.67;100069.19;10230360;29;20078;-66
2023/07/05 16:49:30;;;;;;;1.85;0.70;;;;;;;26.54;27.69;100076.31;10235198;28;20103;-66
2023/07/05 16:54:31;;;;;;;1.90;0.50;;;;;;;26.35;28.11;100075.34;10217226;28;20090;-67
2023/07/05 16:59:35;;;;;;;1.85;0.60;;;;;;;26.47;27.76;100068.34;10212158;28;20071;-67
2023/07/05 17:04:36;;;;;;;2.58;0.60;;;;;;;26.87;27.60;100071.03;10219451;29;20047;-67
2023/07/05 17:09:38;;;;;;;2.83;0.88;;;;;;;26.96;27.83;100069.28;10227665;28;20043;-66
2023/07/05 17:14:39;;;;;;;2.65;0.50;;;;;;;26.17;28.45;100080.44;10223818;29;21049;-63
2023/07/05 17:19:42;;;;;;;2.25;0.60;;;;;;;25.80;29.11;100103.78;10269622;28;20062;-63
2023/07/05 17:24:44;;;;;;;3.00;0.68;;;;;;;25.29;29.48;100107.56;10267697;29;20521;-63
2023/07/05 17:29:45;;;;;;;2.42;0.65;;;;;;;25.03;29.49;100112.28;10269600;29;20212;-62
2023/07/05 17:34:47;;;;;;;2.65;0.65;;;;;;;24.84;29.84;100113.97;10268623;29;20098;-63
2023/07/05 17:39:49;;;;;;;4.97;1.08;;;;;;;24.47;30.22;100115.06;10271002;29;20035;-61
2023/07/05 17:44:50;;;;;;;4.80;0.70;;;;;;;24.18;30.99;100121.06;10271717;28;20039;-63
2023/07/05 17:49:52;;;;;;;2.30;0.55;;;;;;;24.01;31.30;100125.97;10266868;29;20054;-63
2023/07/05 17:54:53;;;;;;;1.10;0.52;;;;;;;24.03;31.92;100134.75;10271531;28;20054;-63
2023/07/05 17:59:55;;;;;;;2.20;0.50;;;;;;;24.12;31.28;100133.16;10268822;28;20062;-63
2023/07/05 18:04:56;;;;;;;1.90;0.75;;;;;;;23.89;31.41;100142.69;10269982;29;20046;-64
2023/07/05 18:09:58;;;;;;;1.60;0.50;;;;;;;23.64;32.00;100148.91;10269766;28;20051;-63
2023/07/05 18:14:59;;;;;;;0.95;0.60;;;;;;;23.48;32.29;100154.31;10264571;28;20063;-63
2023/07/05 18:20:01;;;;;;;1.13;0.55;;;;;;;23.30;33.03;100160.22;10256940;28;20047;-63
2023/07/05 18:25:03;;;;;;;1.92;0.88;;;;;;;23.10;33.83;100169.97;10258359;28;20119;-61
2023/07/05 18:30:06;;;;;;;2.42;0.60;;;;;;;22.96;34.71;100174.22;10247571;28;20094;-63
2023/07/05 18:35:08;;;;;;;2.72;0.60;;;;;;;22.71;36.32;100169.34;10227178;29;20051;-62
2023/07/05 18:40:11;;;;;;;6.72;0.57;;;;;;;22.49;36.73;100184.00;10260035;29;20083;-62
2023/07/05 18:45:13;;;;;;;1.50;0.73;;;;;;;22.37;37.38;100189.63;10261080;28;20054;-62
2023/07/05 18:50:15;;;;;;;3.45;0.70;;;;;;;22.32;37.67;100192.28;10244451;28;20040;-62
2023/07/05 18:55:17;;;;;;;3.75;1.13;;;;;;;22.31;37.84;100192.53;10256686;29;20253;-61
2023/07/05 19:00:18;;;;;;;1.10;0.47;;;;;;;22.30;38.12;100201.88;10261016;28;20047;-64
2023/07/05 19:05:19;;;;;;;0.77;0.40;;;;;;;22.29;38.05;100201.00;10260710;28;20051;-62
2023/07/05 19:10:21;;;;;;;1.60;0.82;;;;;;;22.02;38.66;100200.97;10250896;28;20093;-62
2023/07/05 19:15:23;;;;;;;2.78;0.50;;;;;;;21.94;38.53;100210.47;10257382;28;20115;-70
2023/07/05 19:20:24;;;;;;;0.90;0.40;;;;;;;21.85;38.47;100216.63;10219279;28;20043;-64
2023/07/05 19:25:26;;;;;;;3.60;0.50;;;;;;;21.72;38.81;100226.88;10209541;28;20066;-65
2023/07/05 19:30:29;;;;;;;1.88;0.65;;;;;;;21.61;39.04;100226.97;10217902;29;20142;-64
2023/07/05 19:35:30;;;;;;;1.15;0.60;;;;;;;21.61;38.54;100241.47;10222599;28;20102;-64
2023/07/05 19:40:32;;;;;;;2.65;0.50;;;;;;;21.56;38.87;100241.41;10226515;28;20155;-65
2023/07/05 19:45:34;;;;;;;2.30;0.40;;;;;;;21.51;38.96;100247.63;10233443;29;20138;-65
2023/07/05 19:50:37;;;;;;;2.80;0.32;;;;;;;21.46;38.88;100252.19;10224989;28;20156;-64
2023/07/05 19:55:42;;;;;;;1.35;0.30;;;;;;;21.33;39.11;100261.56;10223476;29;20143;-65
2023/07/05 20:00:44;;;;;;;2.78;0.40;;;;;;;21.18;39.93;100276.63;10231030;28;20047;-66
2023/07/05 20:05:50;;;;;;;1.52;0.40;;;;;;;21.08;40.22;100279.19;10228857;28;20050;-65
2023/07/05 20:10:52;;;;;;;1.83;0.50;;;;;;;20.96;41.37;100281.16;10222926;28;20503;-59
2023/07/05 20:15:59;;;;;;;1.55;0.40;;;;;;;20.73;42.03;100268.44;10229082;28;20055;-60
2023/07/05 20:21:01;;;;;;;0.70;0.30;;;;;;;20.65;42.60;100272.41;10222853;28;20055;-59
2023/07/05 20:26:13;;;;;;;1.10;0.30;;;;;;;20.56;42.77;100279.31;10222123;28;20088;-60
2023/07/05 20:31:15;;;;;;;2.05;0.65;;;;;;;20.49;42.93;100281.34;10221145;28;20143;-60
2023/07/05 20:36:16;;;;;;;0.98;0.40;;;;;;;20.52;42.99;100281.69;10220843;29;20522;-59
2023/07/05 20:41:18;;;;;;;1.95;0.40;;;;;;;20.55;42.61;100280.38;10223863;28;20056;-59
2023/07/05 20:46:20;;;;;;;3.58;0.90;;;;;;;20.54;42.86;100282.28;10229288;28;20063;-59
2023/07/05 20:51:25;;;;;;;0.93;0.30;;;;;;;20.55;42.61;100291.31;10223976;28;20047;-59
2023/07/05 20:56:27;;;;;;;2.03;0.40;;;;;;;20.45;42.68;100296.56;10201437;28;20115;-59
2023/07/05 21:01:29;;;;;;;3.40;0.50;;;;;;;20.43;42.82;100285.06;10212560;28;20047;-59
2023/07/05 21:06:32;;;;;;;0.60;0.30;;;;;;;20.48;42.29;100294.19;10220421;28;20071;-59
2023/07/05 21:11:33;;;;;;;0.68;0.30;;;;;;;20.55;41.95;100299.50;10216173;28;20039;-58
2023/07/05 21:16:35;;;;;;;1.50;0.43;;;;;;;20.58;42.44;100302.56;10221754;28;20046;-57
2023/07/05 21:21:38;;;;;;;1.60;0.40;;;;;;;20.65;42.15;100307.91;10220110;28;20075;-58
2023/07/05 21:26:40;;;;;;;3.38;0.40;;;;;;;20.58;42.66;100309.94;10219304;29;20149;-58
2023/07/05 21:31:41;;;;;;;1.10;0.40;;;;;;;20.60;42.54;100305.09;10217271;29;20051;-58
2023/07/05 21:36:44;;;;;;;4.15;0.40;;;;;;;20.66;42.47;100306.03;10221239;28;20089;-59
2023/07/05 21:41:47;;;;;;;0.73;0.40;;;;;;;20.71;42.04;100309.66;10220146;28;20048;-58
2023/07/05 21:46:49;;;;;;;1.60;0.60;;;;;;;20.67;42.74;100313.97;10214873;29;20043;-59
2023/07/05 21:51:53;;;;;;;1.33;0.38;;;;;;;20.77;42.11;100316.06;10217256;28;20055;-58
2023/07/05 21:56:55;;;;;;;1.02;0.45;;;;;;;20.75;42.50;100318.22;10222791;29;20407;-58
2023/07/05 22:01:56;;;;;;;2.75;0.43;;;;;;;20.75;42.38;100305.41;10212872;28;20062;-59
2023/07/05 22:07:00;;;;;;;2.25;0.43;;;;;;;20.69;42.59;100311.81;10213333;28;20082;-58
2023/07/05 22:12:03;;;;;;;3.85;0.52;;;;;;;20.59;43.14;100323.38;10220272;28;20051;-57
2023/07/05 22:17:06;;;;;;;3.33;0.32;;;;;;;20.52;43.36;100322.66;10217673;29;20063;-58
2023/07/05 22:22:07;;;;;;;0.88;0.40;;;;;;;20.40;43.31;100325.44;10212467;28;20055;-58
2023/07/05 22:27:09;;;;;;;1.52;0.30;;;;;;;20.37;43.48;100322.34;10214772;29;20507;-58
2023/07/05 22:32:12;;;;;;;2.42;0.30;;;;;;;20.37;43.47;100320.44;10217755;28;20071;-58
2023/07/05 22:37:13;;;;;;;1.85;0.45;;;;;;;20.32;43.81;100323.09;10214727;29;20051;-58
2023/07/05 22:42:16;;;;;;;2.25;0.50;;;;;;;20.21;44.41;100329.38;10212712;28;20051;-58
2023/07/05 22:47:18;;;;;;;2.70;0.47;;;;;;;20.03;44.84;100327.63;10211014;28;20059;-58
2023/07/05 22:52:19;;;;;;;2.75;0.40;;;;;;;19.95;44.67;100334.28;10218744;28;20054;-57
2023/07/05 22:57:21;;;;;;;1.63;0.40;;;;;;;19.86;45.08;100327.53;10212423;28;20051;-58
2023/07/05 23:02:24;;;;;;;2.10;0.40;;;;;;;19.84;45.36;100329.66;10215965;28;20051;-57
2023/07/05 23:07:26;;;;;;;0.80;0.30;;;;;;;19.73;45.48;100341.41;10218243;28;20059;-59
2023/07/05 23:12:28;;;;;;;1.65;0.40;;;;;;;19.66;45.88;100354.31;10217170;29;20439;-57
2023/07/05 23:17:29;;;;;;;3.20;0.47;;;;;;;19.64;46.15;100349.06;10219199;28;20109;-58
2023/07/05 23:22:31;;;;;;;3.92;0.82;;;;;;;19.61;46.00;100357.75;10221799;28;20055;-57
2023/07/05 23:27:32;;;;;;;5.75;0.70;;;;;;;19.64;46.18;100351.81;10225908;28;20059;-58